sensor_id;sensor_type;location;lat;lon;timestamp;temperature;humidity
10192;DHT22;17580;50.850;4.504;2022-10-16T00:01:06;13.90;99.90
10192;DHT22;17580;50.850;4.504;2022-10-16T00:03:34;13.90;99.90
10192;DHT22;17580;50.850;4.504;2022-10-16T00:06:01;13.80;99.90
10192;DHT22;17580;50.850;4.504;2022-10-16T00:08:29;13.90;99.90
10192;DHT22;17580;50.850;4.504;2022-10-16T00:11:00;13.90;99.90
10192;DHT22;17580;50.850;4.504;2022-10-16T00:13:29;13.90;99.90
10192;DHT22;17580;50.850;4.504;2022-10-16T00:15:56;13.90;99.90
10192;DHT22;17580;50.850;4.504;2022-10-16T00:18:24;13.90;99.90
10192;DHT22;17580;50.850;4.504;2022-10-16T00:20:51;13.90;99.90
10192;DHT22;17580;50.850;4.504;2022-10-16T00:23:18;13.90;99.90
10192;DHT22;17580;50.850;4.504;2022-10-16T00:25:54;13.90;99.90
10192;DHT22;17580;50.850;4.504;2022-10-16T00:28:21;14.00;99.90
10192;DHT22;17580;50.850;4.504;2022-10-16T00:30:49;14.00;99.90
10192;DHT22;17580;50.850;4.504;2022-10-16T00:33:16;14.00;99.90
10192;DHT22;17580;50.850;4.504;2022-10-16T00:35:43;14.00;99.90
10192;DHT22;17580;50.850;4.504;2022-10-16T00:38:10;14.00;99.90
10192;DHT22;17580;50.850;4.504;2022-10-16T00:40:37;14.00;99.90
10192;DHT22;17580;50.850;4.504;2022-10-16T00:43:12;14.00;99.90
10192;DHT22;17580;50.850;4.504;2022-10-16T00:45:39;13.90;99.90
10192;DHT22;17580;50.850;4.504;2022-10-16T00:48:11;14.00;99.90
10192;DHT22;17580;50.850;4.504;2022-10-16T00:50:40;14.00;99.90
10192;DHT22;17580;50.850;4.504;2022-10-16T00:53:10;13.90;99.90
10192;DHT22;17580;50.850;4.504;2022-10-16T00:55:37;13.90;99.90
10192;DHT22;17580;50.850;4.504;2022-10-16T00:58:04;14.00;99.90
10192;DHT22;17580;50.850;4.504;2022-10-16T01:00:32;14.00;99.90
10192;DHT22;17580;50.850;4.504;2022-10-16T01:03:00;13.90;99.90
10192;DHT22;17580;50.850;4.504;2022-10-16T01:05:33;13.90;99.90
10192;DHT22;17580;50.850;4.504;2022-10-16T01:08:09;13.90;99.90
10192;DHT22;17580;50.850;4.504;2022-10-16T01:10:41;13.90;99.90
10192;DHT22;17580;50.850;4.504;2022-10-16T01:13:14;13.90;99.90
10192;DHT22;17580;50.850;4.504;2022-10-16T01:15:48;13.90;99.90
10192;DHT22;17580;50.850;4.504;2022-10-16T01:18:23;13.90;99.90
10192;DHT22;17580;50.850;4.504;2022-10-16T01:20:59;14.00;99.90
10192;DHT22;17580;50.850;4.504;2022-10-16T01:23:36;13.90;99.90
10192;DHT22;17580;50.850;4.504;2022-10-16T01:26:29;13.90;99.90
10192;DHT22;17580;50.850;4.504;2022-10-16T01:29:03;14.00;99.90
10192;DHT22;17580;50.850;4.504;2022-10-16T01:31:34;13.90;99.90
10192;DHT22;17580;50.850;4.504;2022-10-16T01:34:05;13.90;99.90
10192;DHT22;17580;50.850;4.504;2022-10-16T01:36:37;13.90;99.90
10192;DHT22;17580;50.850;4.504;2022-10-16T01:39:06;13.90;99.90
10192;DHT22;17580;50.850;4.504;2022-10-16T01:41:39;13.90;99.90
10192;DHT22;17580;50.850;4.504;2022-10-16T01:44:11;13.90;99.90
10192;DHT22;17580;50.850;4.504;2022-10-16T01:46:44;13.80;99.90
10192;DHT22;17580;50.850;4.504;2022-10-16T01:49:13;13.90;99.90
10192;DHT22;17580;50.850;4.504;2022-10-16T01:51:41;13.80;99.90
10192;DHT22;17580;50.850;4.504;2022-10-16T01:54:12;13.90;99.90
10192;DHT22;17580;50.850;4.504;2022-10-16T01:56:41;13.90;99.90
10192;DHT22;17580;50.850;4.504;2022-10-16T01:59:13;13.80;99.90
10192;DHT22;17580;50.850;4.504;2022-10-16T02:01:44;13.80;99.90
10192;DHT22;17580;50.850;4.504;2022-10-16T02:04:15;13.80;99.90
10192;DHT22;17580;50.850;4.504;2022-10-16T02:06:43;13.80;99.90
10192;DHT22;17580;50.850;4.504;2022-10-16T02:09:11;13.80;99.90
10192;DHT22;17580;50.850;4.504;2022-10-16T02:11:37;13.80;99.90
10192;DHT22;17580;50.850;4.504;2022-10-16T02:14:06;13.80;99.90
10192;DHT22;17580;50.850;4.504;2022-10-16T02:16:37;13.80;99.90
10192;DHT22;17580;50.850;4.504;2022-10-16T02:19:05;13.90;99.90
10192;DHT22;17580;50.850;4.504;2022-10-16T02:21:38;13.80;99.90
10192;DHT22;17580;50.850;4.504;2022-10-16T02:24:11;13.80;99.90
10192;DHT22;17580;50.850;4.504;2022-10-16T02:26:44;13.80;99.90
10192;DHT22;17580;50.850;4.504;2022-10-16T02:29:15;13.80;99.90
10192;DHT22;17580;50.850;4.504;2022-10-16T02:31:48;13.90;99.90
10192;DHT22;17580;50.850;4.504;2022-10-16T02:34:18;13.90;99.90
10192;DHT22;17580;50.850;4.504;2022-10-16T02:36:47;13.90;99.90
10192;DHT22;17580;50.850;4.504;2022-10-16T02:39:16;13.90;99.90
10192;DHT22;17580;50.850;4.504;2022-10-16T02:41:44;13.90;99.90
10192;DHT22;17580;50.850;4.504;2022-10-16T02:44:11;13.80;99.90
10192;DHT22;17580;50.850;4.504;2022-10-16T02:46:37;13.80;99.90
10192;DHT22;17580;50.850;4.504;2022-10-16T02:49:06;13.80;99.90
10192;DHT22;17580;50.850;4.504;2022-10-16T02:51:33;13.80;99.90
10192;DHT22;17580;50.850;4.504;2022-10-16T02:54:00;13.80;99.90
10192;DHT22;17580;50.850;4.504;2022-10-16T02:56:26;13.80;99.90
10192;DHT22;17580;50.850;4.504;2022-10-16T02:58:53;13.80;99.90
10192;DHT22;17580;50.850;4.504;2022-10-16T03:01:20;13.80;99.90
10192;DHT22;17580;50.850;4.504;2022-10-16T03:03:47;13.80;99.90
10192;DHT22;17580;50.850;4.504;2022-10-16T03:06:16;13.80;99.90
10192;DHT22;17580;50.850;4.504;2022-10-16T03:08:43;13.80;99.90
10192;DHT22;17580;50.850;4.504;2022-10-16T03:11:10;13.80;99.90
10192;DHT22;17580;50.850;4.504;2022-10-16T03:13:36;13.70;99.90
10192;DHT22;17580;50.850;4.504;2022-10-16T03:16:04;13.70;99.90
10192;DHT22;17580;50.850;4.504;2022-10-16T03:18:31;13.80;99.90
10192;DHT22;17580;50.850;4.504;2022-10-16T03:20:57;13.80;99.90
10192;DHT22;17580;50.850;4.504;2022-10-16T03:23:26;13.80;99.90
10192;DHT22;17580;50.850;4.504;2022-10-16T03:25:53;13.80;99.90
10192;DHT22;17580;50.850;4.504;2022-10-16T03:28:20;13.80;99.90
10192;DHT22;17580;50.850;4.504;2022-10-16T03:30:47;13.80;99.90
10192;DHT22;17580;50.850;4.504;2022-10-16T03:33:14;13.80;99.90
10192;DHT22;17580;50.850;4.504;2022-10-16T03:35:41;13.80;99.90
10192;DHT22;17580;50.850;4.504;2022-10-16T03:38:08;13.80;99.90
10192;DHT22;17580;50.850;4.504;2022-10-16T03:40:36;13.80;99.90
10192;DHT22;17580;50.850;4.504;2022-10-16T03:43:03;13.80;99.90
10192;DHT22;17580;50.850;4.504;2022-10-16T03:45:30;13.70;99.90
10192;DHT22;17580;50.850;4.504;2022-10-16T03:47:57;13.80;99.90
10192;DHT22;17580;50.850;4.504;2022-10-16T03:50:24;13.80;99.90
10192;DHT22;17580;50.850;4.504;2022-10-16T03:52:51;13.80;99.90
10192;DHT22;17580;50.850;4.504;2022-10-16T03:55:18;13.80;99.90
10192;DHT22;17580;50.850;4.504;2022-10-16T03:57:46;13.80;99.90
10192;DHT22;17580;50.850;4.504;2022-10-16T04:00:13;13.70;99.90
10192;DHT22;17580;50.850;4.504;2022-10-16T04:02:40;13.80;99.90
10192;DHT22;17580;50.850;4.504;2022-10-16T04:05:07;13.80;99.90
10192;DHT22;17580;50.850;4.504;2022-10-16T04:07:35;13.70;99.90
10192;DHT22;17580;50.850;4.504;2022-10-16T04:10:02;13.80;99.90
10192;DHT22;17580;50.850;4.504;2022-10-16T04:12:29;13.70;99.90
10192;DHT22;17580;50.850;4.504;2022-10-16T04:14:57;13.70;99.90
10192;DHT22;17580;50.850;4.504;2022-10-16T04:17:24;13.70;99.90
10192;DHT22;17580;50.850;4.504;2022-10-16T04:19:51;13.70;99.90
10192;DHT22;17580;50.850;4.504;2022-10-16T04:22:18;13.70;99.90
10192;DHT22;17580;50.850;4.504;2022-10-16T04:24:45;13.70;99.90
10192;DHT22;17580;50.850;4.504;2022-10-16T04:27:12;13.70;99.90
10192;DHT22;17580;50.850;4.504;2022-10-16T04:29:38;13.70;99.90
10192;DHT22;17580;50.850;4.504;2022-10-16T04:32:08;13.70;99.90
10192;DHT22;17580;50.850;4.504;2022-10-16T04:34:35;13.60;99.90
10192;DHT22;17580;50.850;4.504;2022-10-16T04:37:03;13.60;99.90
10192;DHT22;17580;50.850;4.504;2022-10-16T04:39:30;13.60;99.90
10192;DHT22;17580;50.850;4.504;2022-10-16T04:41:57;13.60;99.90
10192;DHT22;17580;50.850;4.504;2022-10-16T04:44:24;13.60;99.90
10192;DHT22;17580;50.850;4.504;2022-10-16T04:46:51;13.60;99.90
10192;DHT22;17580;50.850;4.504;2022-10-16T04:49:19;13.60;99.90
10192;DHT22;17580;50.850;4.504;2022-10-16T04:51:46;13.60;99.90
10192;DHT22;17580;50.850;4.504;2022-10-16T04:54:13;13.60;99.90
10192;DHT22;17580;50.850;4.504;2022-10-16T04:56:40;13.60;99.90
10192;DHT22;17580;50.850;4.504;2022-10-16T04:59:12;13.60;99.90
10192;DHT22;17580;50.850;4.504;2022-10-16T05:01:39;13.60;99.90
10192;DHT22;17580;50.850;4.504;2022-10-16T05:04:06;13.60;99.90
10192;DHT22;17580;50.850;4.504;2022-10-16T05:06:35;13.50;99.90
10192;DHT22;17580;50.850;4.504;2022-10-16T05:09:02;13.50;99.90
10192;DHT22;17580;50.850;4.504;2022-10-16T05:11:30;13.50;99.90
10192;DHT22;17580;50.850;4.504;2022-10-16T05:13:57;13.50;99.90
10192;DHT22;17580;50.850;4.504;2022-10-16T05:16:24;13.50;99.90
10192;DHT22;17580;50.850;4.504;2022-10-16T05:18:51;13.50;99.90
10192;DHT22;17580;50.850;4.504;2022-10-16T05:21:18;13.50;99.90
10192;DHT22;17580;50.850;4.504;2022-10-16T05:23:46;13.50;99.90
10192;DHT22;17580;50.850;4.504;2022-10-16T05:26:13;13.50;99.90
10192;DHT22;17580;50.850;4.504;2022-10-16T05:28:40;13.50;99.90
10192;DHT22;17580;50.850;4.504;2022-10-16T05:31:08;13.50;99.90
10192;DHT22;17580;50.850;4.504;2022-10-16T05:33:36;13.40;99.90
10192;DHT22;17580;50.850;4.504;2022-10-16T05:36:03;13.40;99.90
10192;DHT22;17580;50.850;4.504;2022-10-16T05:38:30;13.40;99.90
10192;DHT22;17580;50.850;4.504;2022-10-16T05:40:59;13.40;99.90
10192;DHT22;17580;50.850;4.504;2022-10-16T05:43:27;13.40;99.90
10192;DHT22;17580;50.850;4.504;2022-10-16T05:45:55;13.30;99.90
10192;DHT22;17580;50.850;4.504;2022-10-16T05:48:22;13.30;99.90
10192;DHT22;17580;50.850;4.504;2022-10-16T05:50:56;13.30;99.90
10192;DHT22;17580;50.850;4.504;2022-10-16T05:53:24;13.30;99.90
10192;DHT22;17580;50.850;4.504;2022-10-16T05:55:52;13.30;99.90
10192;DHT22;17580;50.850;4.504;2022-10-16T05:58:21;13.30;99.90
10192;DHT22;17580;50.850;4.504;2022-10-16T06:00:55;13.30;99.90
10192;DHT22;17580;50.850;4.504;2022-10-16T06:03:22;13.30;99.90
10192;DHT22;17580;50.850;4.504;2022-10-16T06:05:50;13.20;99.90
10192;DHT22;17580;50.850;4.504;2022-10-16T06:08:17;13.30;99.90
10192;DHT22;17580;50.850;4.504;2022-10-16T06:10:45;13.20;99.90
10192;DHT22;17580;50.850;4.504;2022-10-16T06:13:13;13.30;99.90
10192;DHT22;17580;50.850;4.504;2022-10-16T06:15:42;13.30;99.90
10192;DHT22;17580;50.850;4.504;2022-10-16T06:18:09;13.20;99.90
10192;DHT22;17580;50.850;4.504;2022-10-16T06:20:37;13.20;99.90
10192;DHT22;17580;50.850;4.504;2022-10-16T06:23:04;13.30;99.90
10192;DHT22;17580;50.850;4.504;2022-10-16T06:25:31;13.20;99.90
10192;DHT22;17580;50.850;4.504;2022-10-16T06:27:58;13.20;99.90
10192;DHT22;17580;50.850;4.504;2022-10-16T06:30:25;13.20;99.90
10192;DHT22;17580;50.850;4.504;2022-10-16T06:32:53;13.30;99.90
10192;DHT22;17580;50.850;4.504;2022-10-16T06:35:20;13.30;99.90
10192;DHT22;17580;50.850;4.504;2022-10-16T06:37:47;13.20;99.90
10192;DHT22;17580;50.850;4.504;2022-10-16T06:40:14;13.30;99.90
10192;DHT22;17580;50.850;4.504;2022-10-16T06:42:41;13.30;99.90
10192;DHT22;17580;50.850;4.504;2022-10-16T06:45:09;13.30;99.90
10192;DHT22;17580;50.850;4.504;2022-10-16T06:47:36;13.30;99.90
10192;DHT22;17580;50.850;4.504;2022-10-16T06:50:06;13.30;99.90
10192;DHT22;17580;50.850;4.504;2022-10-16T06:52:33;13.40;99.90
10192;DHT22;17580;50.850;4.504;2022-10-16T06:55:00;13.40;99.90
10192;DHT22;17580;50.850;4.504;2022-10-16T06:57:28;13.50;99.90
10192;DHT22;17580;50.850;4.504;2022-10-16T06:59:55;13.60;99.90
10192;DHT22;17580;50.850;4.504;2022-10-16T07:02:22;13.70;99.90
10192;DHT22;17580;50.850;4.504;2022-10-16T07:04:49;13.80;99.90
10192;DHT22;17580;50.850;4.504;2022-10-16T07:07:17;13.90;99.90
10192;DHT22;17580;50.850;4.504;2022-10-16T07:09:44;13.90;99.90
10192;DHT22;17580;50.850;4.504;2022-10-16T07:12:11;14.00;99.90
10192;DHT22;17580;50.850;4.504;2022-10-16T07:14:38;13.90;99.90
10192;DHT22;17580;50.850;4.504;2022-10-16T07:17:05;14.00;99.90
10192;DHT22;17580;50.850;4.504;2022-10-16T07:19:32;14.00;99.90
10192;DHT22;17580;50.850;4.504;2022-10-16T07:21:59;14.10;99.90
10192;DHT22;17580;50.850;4.504;2022-10-16T07:24:27;14.10;99.90
10192;DHT22;17580;50.850;4.504;2022-10-16T07:26:54;14.20;99.90
10192;DHT22;17580;50.850;4.504;2022-10-16T07:29:21;14.10;99.90
10192;DHT22;17580;50.850;4.504;2022-10-16T07:31:49;14.20;99.90
10192;DHT22;17580;50.850;4.504;2022-10-16T07:34:17;14.20;99.90
10192;DHT22;17580;50.850;4.504;2022-10-16T07:36:47;14.30;99.90
10192;DHT22;17580;50.850;4.504;2022-10-16T07:39:14;14.30;99.90
10192;DHT22;17580;50.850;4.504;2022-10-16T07:41:42;14.30;99.90
10192;DHT22;17580;50.850;4.504;2022-10-16T07:44:09;14.30;99.90
10192;DHT22;17580;50.850;4.504;2022-10-16T07:46:37;14.40;99.90
10192;DHT22;17580;50.850;4.504;2022-10-16T07:49:04;14.40;99.90
10192;DHT22;17580;50.850;4.504;2022-10-16T07:51:31;14.40;99.90
10192;DHT22;17580;50.850;4.504;2022-10-16T07:53:57;14.50;99.90
10192;DHT22;17580;50.850;4.504;2022-10-16T07:56:24;14.50;99.90
10192;DHT22;17580;50.850;4.504;2022-10-16T07:58:53;14.60;99.90
10192;DHT22;17580;50.850;4.504;2022-10-16T08:01:21;14.60;99.90
10192;DHT22;17580;50.850;4.504;2022-10-16T08:03:49;14.70;99.90
10192;DHT22;17580;50.850;4.504;2022-10-16T08:06:17;14.80;99.90
10192;DHT22;17580;50.850;4.504;2022-10-16T08:08:44;14.90;99.90
10192;DHT22;17580;50.850;4.504;2022-10-16T08:11:11;15.10;99.90
10192;DHT22;17580;50.850;4.504;2022-10-16T08:13:39;15.10;99.90
10192;DHT22;17580;50.850;4.504;2022-10-16T08:16:08;15.30;99.90
10192;DHT22;17580;50.850;4.504;2022-10-16T08:18:35;15.50;99.90
10192;DHT22;17580;50.850;4.504;2022-10-16T08:21:03;16.20;99.90
10192;DHT22;17580;50.850;4.504;2022-10-16T08:23:30;17.80;99.90
10192;DHT22;17580;50.850;4.504;2022-10-16T08:26:04;19.10;99.40
10192;DHT22;17580;50.850;4.504;2022-10-16T08:28:31;20.30;90.00
10192;DHT22;17580;50.850;4.504;2022-10-16T08:31:05;21.30;80.60
10192;DHT22;17580;50.850;4.504;2022-10-16T08:33:34;22.00;70.00
10192;DHT22;17580;50.850;4.504;2022-10-16T08:36:02;22.30;65.70
10192;DHT22;17580;50.850;4.504;2022-10-16T08:38:29;22.80;64.00
10192;DHT22;17580;50.850;4.504;2022-10-16T08:41:13;23.10;60.10
10192;DHT22;17580;50.850;4.504;2022-10-16T08:44:00;23.50;57.90
10192;DHT22;17580;50.850;4.504;2022-10-16T08:46:40;23.70;56.30
10192;DHT22;17580;50.850;4.504;2022-10-16T08:49:12;23.50;54.30
10192;DHT22;17580;50.850;4.504;2022-10-16T08:51:40;23.80;54.90
10192;DHT22;17580;50.850;4.504;2022-10-16T08:54:21;24.20;51.70
10192;DHT22;17580;50.850;4.504;2022-10-16T08:56:49;24.20;52.20
10192;DHT22;17580;50.850;4.504;2022-10-16T08:59:16;24.90;52.00
10192;DHT22;17580;50.850;4.504;2022-10-16T09:01:45;25.30;47.80
10192;DHT22;17580;50.850;4.504;2022-10-16T09:04:46;25.30;50.10
10192;DHT22;17580;50.850;4.504;2022-10-16T09:07:19;25.30;46.60
10192;DHT22;17580;50.850;4.504;2022-10-16T09:09:58;25.40;45.40
10192;DHT22;17580;50.850;4.504;2022-10-16T09:12:33;26.10;43.80
10192;DHT22;17580;50.850;4.504;2022-10-16T09:15:13;25.80;43.70
10192;DHT22;17580;50.850;4.504;2022-10-16T09:17:52;25.90;44.00
10192;DHT22;17580;50.850;4.504;2022-10-16T09:20:30;26.40;42.00
10192;DHT22;17580;50.850;4.504;2022-10-16T09:23:10;26.60;40.30
10192;DHT22;17580;50.850;4.504;2022-10-16T09:25:40;26.50;40.10
10192;DHT22;17580;50.850;4.504;2022-10-16T09:28:09;26.80;39.30
10192;DHT22;17580;50.850;4.504;2022-10-16T09:30:37;26.80;38.30
10192;DHT22;17580;50.850;4.504;2022-10-16T09:33:05;27.10;40.80
10192;DHT22;17580;50.850;4.504;2022-10-16T09:35:37;27.10;38.70
10192;DHT22;17580;50.850;4.504;2022-10-16T09:38:05;27.40;37.30
10192;DHT22;17580;50.850;4.504;2022-10-16T09:40:34;27.90;36.70
10192;DHT22;17580;50.850;4.504;2022-10-16T09:43:12;28.20;35.70
10192;DHT22;17580;50.850;4.504;2022-10-16T09:45:43;28.00;34.70
10192;DHT22;17580;50.850;4.504;2022-10-16T09:48:19;27.90;33.70
10192;DHT22;17580;50.850;4.504;2022-10-16T09:50:57;27.10;33.40
10192;DHT22;17580;50.850;4.504;2022-10-16T09:53:23;26.90;34.70
10192;DHT22;17580;50.850;4.504;2022-10-16T09:55:53;25.80;36.60
10192;DHT22;17580;50.850;4.504;2022-10-16T09:58:22;25.50;37.60
10192;DHT22;17580;50.850;4.504;2022-10-16T10:00:51;25.70;38.30
10192;DHT22;17580;50.850;4.504;2022-10-16T10:03:34;25.60;38.70
10192;DHT22;17580;50.850;4.504;2022-10-16T10:06:16;25.60;37.50
10192;DHT22;17580;50.850;4.504;2022-10-16T10:08:57;24.80;38.50
10192;DHT22;17580;50.850;4.504;2022-10-16T10:11:44;24.80;39.60
10192;DHT22;17580;50.850;4.504;2022-10-16T10:14:28;25.00;38.20
10192;DHT22;17580;50.850;4.504;2022-10-16T10:17:12;25.30;37.90
10192;DHT22;17580;50.850;4.504;2022-10-16T10:19:41;25.40;38.40
10192;DHT22;17580;50.850;4.504;2022-10-16T10:22:24;25.70;37.20
10192;DHT22;17580;50.850;4.504;2022-10-16T10:27:42;27.50;33.50
10192;DHT22;17580;50.850;4.504;2022-10-16T10:30:18;28.10;32.60
10192;DHT22;17580;50.850;4.504;2022-10-16T10:32:58;28.60;32.20
10192;DHT22;17580;50.850;4.504;2022-10-16T10:35:31;28.50;31.30
10192;DHT22;17580;50.850;4.504;2022-10-16T10:38:10;27.80;29.90
10192;DHT22;17580;50.850;4.504;2022-10-16T10:40:50;27.90;31.10
10192;DHT22;17580;50.850;4.504;2022-10-16T10:43:36;28.50;28.70
10192;DHT22;17580;50.850;4.504;2022-10-16T10:46:11;26.80;31.70
10192;DHT22;17580;50.850;4.504;2022-10-16T10:48:54;25.40;33.90
10192;DHT22;17580;50.850;4.504;2022-10-16T10:51:30;24.00;37.50
10192;DHT22;17580;50.850;4.504;2022-10-16T10:54:07;24.20;36.80
10192;DHT22;17580;50.850;4.504;2022-10-16T10:56:44;24.60;39.40
10192;DHT22;17580;50.850;4.504;2022-10-16T10:59:40;24.20;37.00
10192;DHT22;17580;50.850;4.504;2022-10-16T11:02:15;24.10;36.50
10192;DHT22;17580;50.850;4.504;2022-10-16T11:07:57;24.00;40.50
10192;DHT22;17580;50.850;4.504;2022-10-16T11:10:31;25.70;38.40
10192;DHT22;17580;50.850;4.504;2022-10-16T11:13:17;25.30;37.80
10192;DHT22;17580;50.850;4.504;2022-10-16T11:15:48;25.80;36.90
10192;DHT22;17580;50.850;4.504;2022-10-16T11:18:19;26.80;35.50
10192;DHT22;17580;50.850;4.504;2022-10-16T11:20:50;26.90;33.10
10192;DHT22;17580;50.850;4.504;2022-10-16T11:23:23;26.60;34.00
10192;DHT22;17580;50.850;4.504;2022-10-16T11:25:55;27.30;33.40
10192;DHT22;17580;50.850;4.504;2022-10-16T11:28:27;28.20;31.80
10192;DHT22;17580;50.850;4.504;2022-10-16T11:30:59;28.40;32.00
10192;DHT22;17580;50.850;4.504;2022-10-16T11:33:30;28.60;30.70
10192;DHT22;17580;50.850;4.504;2022-10-16T11:36:04;28.00;30.10
10192;DHT22;17580;50.850;4.504;2022-10-16T11:38:37;28.00;30.80
10192;DHT22;17580;50.850;4.504;2022-10-16T11:41:16;28.60;27.60
10192;DHT22;17580;50.850;4.504;2022-10-16T11:43:51;28.90;27.10
10192;DHT22;17580;50.850;4.504;2022-10-16T11:46:21;29.10;26.80
10192;DHT22;17580;50.850;4.504;2022-10-16T11:48:53;27.30;27.10
10192;DHT22;17580;50.850;4.504;2022-10-16T11:51:26;27.00;26.30
10192;DHT22;17580;50.850;4.504;2022-10-16T11:54:00;25.30;31.00
10192;DHT22;17580;50.850;4.504;2022-10-16T11:56:32;23.80;31.90
10192;DHT22;17580;50.850;4.504;2022-10-16T11:59:05;23.40;35.90
10192;DHT22;17580;50.850;4.504;2022-10-16T12:01:40;23.20;35.80
10192;DHT22;17580;50.850;4.504;2022-10-16T12:04:19;23.10;38.00
10192;DHT22;17580;50.850;4.504;2022-10-16T12:06:50;23.10;35.90
10192;DHT22;17580;50.850;4.504;2022-10-16T12:09:23;23.00;37.50
10192;DHT22;17580;50.850;4.504;2022-10-16T12:11:53;22.90;38.50
10192;DHT22;17580;50.850;4.504;2022-10-16T12:14:33;22.80;42.20
10192;DHT22;17580;50.850;4.504;2022-10-16T12:17:02;22.90;40.80
10192;DHT22;17580;50.850;4.504;2022-10-16T12:19:32;22.90;40.70
10192;DHT22;17580;50.850;4.504;2022-10-16T12:22:00;22.60;38.30
10192;DHT22;17580;50.850;4.504;2022-10-16T12:24:35;22.30;41.10
10192;DHT22;17580;50.850;4.504;2022-10-16T12:27:06;22.00;38.90
10192;DHT22;17580;50.850;4.504;2022-10-16T12:29:44;21.80;41.70
10192;DHT22;17580;50.850;4.504;2022-10-16T12:32:26;21.50;42.70
10192;DHT22;17580;50.850;4.504;2022-10-16T12:34:54;21.40;42.70
10192;DHT22;17580;50.850;4.504;2022-10-16T12:37:24;21.30;45.20
10192;DHT22;17580;50.850;4.504;2022-10-16T12:39:53;21.80;43.90
10192;DHT22;17580;50.850;4.504;2022-10-16T12:42:31;22.00;45.40
10192;DHT22;17580;50.850;4.504;2022-10-16T12:45:00;22.00;44.20
10192;DHT22;17580;50.850;4.504;2022-10-16T12:47:37;21.50;47.10
10192;DHT22;17580;50.850;4.504;2022-10-16T12:50:27;21.50;46.80
10192;DHT22;17580;50.850;4.504;2022-10-16T12:52:56;21.30;48.60
10192;DHT22;17580;50.850;4.504;2022-10-16T12:55:24;21.20;47.50
10192;DHT22;17580;50.850;4.504;2022-10-16T13:00:55;21.00;48.90
10192;DHT22;17580;50.850;4.504;2022-10-16T13:03:42;20.90;50.60
10192;DHT22;17580;50.850;4.504;2022-10-16T13:06:28;20.80;53.70
10192;DHT22;17580;50.850;4.504;2022-10-16T13:12:06;20.70;52.00
10192;DHT22;17580;50.850;4.504;2022-10-16T13:15:01;21.00;53.00
10192;DHT22;17580;50.850;4.504;2022-10-16T13:17:38;21.20;51.50
10192;DHT22;17580;50.850;4.504;2022-10-16T13:20:15;21.40;51.00
10192;DHT22;17580;50.850;4.504;2022-10-16T13:22:51;21.30;51.30
10192;DHT22;17580;50.850;4.504;2022-10-16T13:25:25;21.30;49.90
10192;DHT22;17580;50.850;4.504;2022-10-16T13:27:56;21.20;50.30
10192;DHT22;17580;50.850;4.504;2022-10-16T13:30:37;21.00;49.80
10192;DHT22;17580;50.850;4.504;2022-10-16T13:33:12;20.80;52.40
10192;DHT22;17580;50.850;4.504;2022-10-16T13:35:48;20.90;52.40
10192;DHT22;17580;50.850;4.504;2022-10-16T13:38:17;20.90;51.20
10192;DHT22;17580;50.850;4.504;2022-10-16T13:40:52;21.00;54.20
10192;DHT22;17580;50.850;4.504;2022-10-16T13:43:22;21.40;53.00
10192;DHT22;17580;50.850;4.504;2022-10-16T13:45:56;21.50;52.00
10192;DHT22;17580;50.850;4.504;2022-10-16T13:48:23;21.30;54.30
10192;DHT22;17580;50.850;4.504;2022-10-16T13:51:10;21.10;52.40
10192;DHT22;17580;50.850;4.504;2022-10-16T13:53:38;20.90;54.40
10192;DHT22;17580;50.850;4.504;2022-10-16T13:56:09;20.70;54.00
10192;DHT22;17580;50.850;4.504;2022-10-16T13:58:36;20.60;57.80
10192;DHT22;17580;50.850;4.504;2022-10-16T14:01:14;20.50;55.20
10192;DHT22;17580;50.850;4.504;2022-10-16T14:03:42;20.50;55.80
10192;DHT22;17580;50.850;4.504;2022-10-16T14:06:13;20.60;54.80
10192;DHT22;17580;50.850;4.504;2022-10-16T14:08:43;20.60;56.80
10192;DHT22;17580;50.850;4.504;2022-10-16T14:11:10;20.50;56.20
10192;DHT22;17580;50.850;4.504;2022-10-16T14:13:40;20.50;55.70
10192;DHT22;17580;50.850;4.504;2022-10-16T14:16:17;20.40;55.80
10192;DHT22;17580;50.850;4.504;2022-10-16T14:18:47;20.20;63.30
10192;DHT22;17580;50.850;4.504;2022-10-16T14:21:18;20.10;59.40
10192;DHT22;17580;50.850;4.504;2022-10-16T14:23:45;20.10;61.70
10192;DHT22;17580;50.850;4.504;2022-10-16T14:26:14;20.20;59.30
10192;DHT22;17580;50.850;4.504;2022-10-16T14:28:42;20.20;65.40
10192;DHT22;17580;50.850;4.504;2022-10-16T14:31:31;20.20;64.80
10192;DHT22;17580;50.850;4.504;2022-10-16T14:33:59;20.20;61.00
10192;DHT22;17580;50.850;4.504;2022-10-16T14:36:27;20.20;66.40
10192;DHT22;17580;50.850;4.504;2022-10-16T14:38:59;20.30;63.70
10192;DHT22;17580;50.850;4.504;2022-10-16T14:41:28;20.20;65.70
10192;DHT22;17580;50.850;4.504;2022-10-16T14:43:56;20.20;67.80
10192;DHT22;17580;50.850;4.504;2022-10-16T14:46:33;20.30;68.40
10192;DHT22;17580;50.850;4.504;2022-10-16T14:49:05;20.30;64.00
10192;DHT22;17580;50.850;4.504;2022-10-16T14:51:39;20.20;63.50
10192;DHT22;17580;50.850;4.504;2022-10-16T14:54:08;20.10;67.50
10192;DHT22;17580;50.850;4.504;2022-10-16T14:56:43;20.10;67.10
10192;DHT22;17580;50.850;4.504;2022-10-16T14:59:15;20.00;69.30
10192;DHT22;17580;50.850;4.504;2022-10-16T15:01:44;19.90;71.50
10192;DHT22;17580;50.850;4.504;2022-10-16T15:04:12;19.90;73.60
10192;DHT22;17580;50.850;4.504;2022-10-16T15:06:41;19.90;69.20
10192;DHT22;17580;50.850;4.504;2022-10-16T15:09:08;19.70;77.50
10192;DHT22;17580;50.850;4.504;2022-10-16T15:11:35;19.70;72.60
10192;DHT22;17580;50.850;4.504;2022-10-16T15:14:02;19.70;74.70
10192;DHT22;17580;50.850;4.504;2022-10-16T15:16:29;19.70;78.90
10192;DHT22;17580;50.850;4.504;2022-10-16T15:18:58;19.70;82.50
10192;DHT22;17580;50.850;4.504;2022-10-16T15:21:27;19.70;78.00
10192;DHT22;17580;50.850;4.504;2022-10-16T15:23:54;19.70;78.60
10192;DHT22;17580;50.850;4.504;2022-10-16T15:26:22;19.60;76.50
10192;DHT22;17580;50.850;4.504;2022-10-16T15:28:49;19.50;80.30
10192;DHT22;17580;50.850;4.504;2022-10-16T15:31:16;19.50;75.20
10192;DHT22;17580;50.850;4.504;2022-10-16T15:33:43;19.40;74.60
10192;DHT22;17580;50.850;4.504;2022-10-16T15:36:14;19.30;83.30
10192;DHT22;17580;50.850;4.504;2022-10-16T15:38:41;19.20;86.90
10192;DHT22;17580;50.850;4.504;2022-10-16T15:41:08;19.20;88.60
10192;DHT22;17580;50.850;4.504;2022-10-16T15:43:35;19.10;90.10
10192;DHT22;17580;50.850;4.504;2022-10-16T15:46:04;19.00;90.70
10192;DHT22;17580;50.850;4.504;2022-10-16T15:48:32;19.00;91.40
10192;DHT22;17580;50.850;4.504;2022-10-16T15:51:00;18.90;91.80
10192;DHT22;17580;50.850;4.504;2022-10-16T15:53:28;18.90;93.20
10192;DHT22;17580;50.850;4.504;2022-10-16T15:55:55;18.80;94.10
10192;DHT22;17580;50.850;4.504;2022-10-16T15:58:22;18.70;95.00
10192;DHT22;17580;50.850;4.504;2022-10-16T16:00:54;18.60;96.80
10192;DHT22;17580;50.850;4.504;2022-10-16T16:03:22;18.60;96.80